createdAt,value
2019-03-28T00:05:10.169Z,4.67
2019-03-28T00:08:17.400Z,4.57
2019-03-28T00:11:22.629Z,4.33
2019-03-28T00:14:27.295Z,5.20
2019-03-28T00:17:32.295Z,5.07
2019-03-28T00:20:37.292Z,4.40
2019-03-28T00:23:46.472Z,4.50
2019-03-28T00:26:51.458Z,5.23
2019-03-28T00:29:56.300Z,4.77
2019-03-28T00:33:01.045Z,4.37
2019-03-28T00:36:06.278Z,4.60
2019-03-28T00:39:12.628Z,4.70
2019-03-28T00:42:17.706Z,4.70
2019-03-28T00:45:22.750Z,4.60
2019-03-28T00:51:32.564Z,4.80
2019-03-28T00:54:37.902Z,4.77
2019-03-28T00:57:42.575Z,5.20
2019-03-28T01:00:47.705Z,4.67
2019-03-28T01:03:52.294Z,5.10
2019-03-28T01:06:57.211Z,4.93
2019-03-28T01:10:02.074Z,4.80
2019-03-28T01:13:07.273Z,4.50
2019-03-28T01:16:12.279Z,4.47
2019-03-28T01:19:17.311Z,4.87
2019-03-28T01:22:22.321Z,4.60
2019-03-28T01:25:27.674Z,4.90
2019-03-28T01:31:37.688Z,4.73
2019-03-28T01:34:42.536Z,4.93
2019-03-28T01:37:47.582Z,5.13
2019-03-28T01:40:52.299Z,5.00
2019-03-28T01:43:57.123Z,5.17
2019-03-28T01:47:02.364Z,4.63
2019-03-28T01:50:07.752Z,4.27
2019-03-28T01:56:17.255Z,5.10
2019-03-28T01:59:22.433Z,5.10
2019-03-28T02:02:27.374Z,4.97
2019-03-28T02:05:32.344Z,5.00
2019-03-28T02:08:37.179Z,5.07
2019-03-28T02:11:41.893Z,5.43
2019-03-28T02:14:47.951Z,4.30
2019-03-28T02:17:54.413Z,5.50
2019-03-28T02:20:59.951Z,5.30
2019-03-28T02:24:05.394Z,5.60
2019-03-28T02:27:23.080Z,5.97
2019-03-28T02:30:20.533Z,5.50
2019-03-28T02:33:25.794Z,5.90
2019-03-28T02:36:31.074Z,5.63
2019-03-28T02:39:36.266Z,5.30
2019-03-28T02:42:41.287Z,6.27
2019-03-28T02:45:46.625Z,6.70
2019-03-28T02:48:51.329Z,6.20
2019-03-28T02:51:56.084Z,5.70
2019-03-28T02:55:02.972Z,6.27
2019-03-28T02:58:07.540Z,6.07
2019-03-28T03:01:12.811Z,6.20
2019-03-28T03:04:17.419Z,6.87
2019-03-28T03:07:22.270Z,7.03
2019-03-28T03:10:27.353Z,7.63
2019-03-28T03:13:32.164Z,7.57
2019-03-28T03:16:37.682Z,7.07
2019-03-28T03:22:46.312Z,7.70
2019-03-28T03:25:51.073Z,7.17
2019-03-28T03:28:55.969Z,7.83
2019-03-28T03:32:00.783Z,7.90
2019-03-28T03:38:10.912Z,7.93
2019-03-28T03:41:15.792Z,6.93
2019-03-28T03:44:20.619Z,8.20
2019-03-28T03:47:25.283Z,7.70
2019-03-28T03:50:30.657Z,7.50
2019-03-28T03:56:39.700Z,7.60
2019-03-28T04:02:49.317Z,7.13
2019-03-28T04:05:54.533Z,7.67
2019-03-28T04:09:01.460Z,7.40
2019-03-28T04:12:06.939Z,7.10
2019-03-28T04:15:11.493Z,7.30
2019-03-28T04:18:16.784Z,7.83
2019-03-28T04:21:21.983Z,7.10
2019-03-28T04:24:26.733Z,6.60
2019-03-28T04:30:36.302Z,6.57
2019-03-28T04:33:41.484Z,6.67
2019-03-28T04:36:46.362Z,7.90
2019-03-28T04:39:51.555Z,7.30
2019-03-28T04:42:56.335Z,7.90
2019-03-28T04:46:01.355Z,8.97
2019-03-28T04:49:06.702Z,7.70
2019-03-28T04:55:16.240Z,8.00
2019-03-28T04:58:21.929Z,8.00
2019-03-28T05:01:27.668Z,8.17
2019-03-28T05:04:32.559Z,8.27
2019-03-28T05:07:37.899Z,8.53
2019-03-28T05:10:42.986Z,8.83
2019-03-28T05:13:48.297Z,9.07
2019-03-28T05:16:55.671Z,8.23
2019-03-28T05:20:00.660Z,8.87
2019-03-28T05:26:09.761Z,8.17
2019-03-28T05:32:18.703Z,9.07
2019-03-28T05:38:28.282Z,8.87
2019-03-28T05:41:33.750Z,8.97
2019-03-28T05:44:41.490Z,8.67
2019-03-28T05:47:46.568Z,9.30
2019-03-28T05:50:51.319Z,9.13
2019-03-28T05:53:56.315Z,10.50
2019-03-28T05:57:01.308Z,10.70
2019-03-28T06:00:08.095Z,9.77
2019-03-28T06:03:12.910Z,9.37
2019-03-28T06:06:18.984Z,9.97
2019-03-28T06:09:24.443Z,9.67
2019-03-28T06:12:29.662Z,8.40
2019-03-28T06:15:35.321Z,9.37
2019-03-28T06:18:40.425Z,9.43
2019-03-28T06:21:45.431Z,12.03
2019-03-28T06:24:50.496Z,12.80
2019-03-28T06:27:55.840Z,12.33
2019-03-28T06:31:00.635Z,12.60
2019-03-28T06:34:05.724Z,14.17
2019-03-28T06:37:11.028Z,16.63
2019-03-28T06:40:17.730Z,15.73
2019-03-28T06:43:23.260Z,16.03
2019-03-28T06:46:27.948Z,16.07
2019-03-28T06:49:34.680Z,15.47
2019-03-28T06:52:39.567Z,15.70
2019-03-28T06:55:44.513Z,16.43
2019-03-28T06:58:49.411Z,16.97
2019-03-28T07:01:54.384Z,15.87
2019-03-28T07:05:00.409Z,14.67
2019-03-28T07:08:05.488Z,13.53
2019-03-28T07:11:10.296Z,15.00
2019-03-28T07:14:15.324Z,15.07
2019-03-28T07:17:20.316Z,15.60
2019-03-28T07:20:26.344Z,15.27
2019-03-28T07:23:31.575Z,13.07
2019-03-28T07:26:36.846Z,13.27
2019-03-28T07:29:50.687Z,12.03
2019-03-28T07:32:49.272Z,11.27
2019-03-28T07:35:54.622Z,11.33
2019-03-28T07:38:59.408Z,10.87
2019-03-28T07:42:04.141Z,10.97
2019-03-28T07:45:10.267Z,11.07
2019-03-28T07:48:15.578Z,10.33
2019-03-28T07:51:20.466Z,9.70
2019-03-28T07:54:25.276Z,9.87
2019-03-28T07:57:30.299Z,9.83
2019-03-28T08:00:35.325Z,9.90
2019-03-28T08:03:40.503Z,9.03
2019-03-28T08:06:50.046Z,10.07
2019-03-28T08:09:51.938Z,8.07
2019-03-28T08:12:57.394Z,8.83
2019-03-28T08:16:02.593Z,8.17
2019-03-28T08:19:08.423Z,7.97
2019-03-28T08:22:13.245Z,7.47
2019-03-28T08:25:17.968Z,7.33
2019-03-28T08:28:23.257Z,8.17
2019-03-28T08:31:28.517Z,7.27
2019-03-28T08:34:33.615Z,7.43
2019-03-28T08:37:40.915Z,6.80
2019-03-28T08:40:45.526Z,7.30
2019-03-28T08:43:50.341Z,5.93
2019-03-28T08:46:55.332Z,6.87
2019-03-28T08:50:00.425Z,6.10
2019-03-28T08:56:09.743Z,6.13
2019-03-28T08:59:14.834Z,6.27
2019-03-28T09:02:19.745Z,6.93
2019-03-28T09:08:28.576Z,7.63
2019-03-28T09:11:33.678Z,7.13
2019-03-28T09:17:43.274Z,7.17
2019-03-28T09:20:48.297Z,6.60
2019-03-28T09:23:53.310Z,6.33
2019-03-28T09:26:58.444Z,6.73
2019-03-28T09:30:03.297Z,7.20
2019-03-28T09:33:07.914Z,5.37
2019-03-28T09:36:12.520Z,4.73
2019-03-28T09:39:17.246Z,5.10
2019-03-28T09:42:22.000Z,5.13
2019-03-28T09:45:26.733Z,5.30
2019-03-28T09:51:38.102Z,5.27
2019-03-28T09:54:43.010Z,4.47
2019-03-28T09:57:49.337Z,5.30
2019-03-28T10:01:02.805Z,5.17
2019-03-28T10:04:01.731Z,5.57
2019-03-28T10:07:07.354Z,5.47
2019-03-28T10:10:13.775Z,5.63
2019-03-28T10:13:19.386Z,5.37
2019-03-28T10:16:24.405Z,5.67
2019-03-28T10:19:29.328Z,5.73
2019-03-28T10:22:34.339Z,6.07
2019-03-28T10:25:39.471Z,5.60
2019-03-28T10:28:45.358Z,5.13
2019-03-28T10:31:50.570Z,4.80
2019-03-28T10:34:55.254Z,5.67
2019-03-28T10:38:00.174Z,4.83
2019-03-28T10:41:05.133Z,5.40
2019-03-28T10:44:10.493Z,5.73
2019-03-28T10:47:15.747Z,5.57
2019-03-28T10:50:20.976Z,6.17
2019-03-28T10:53:25.641Z,5.53
2019-03-28T10:56:30.335Z,6.10
2019-03-28T10:59:35.411Z,6.03
2019-03-28T11:02:40.126Z,5.97
2019-03-28T11:05:44.974Z,6.20
2019-03-28T11:08:51.308Z,7.20
2019-03-28T11:11:56.680Z,5.93
2019-03-28T11:18:07.419Z,6.07
2019-03-28T11:21:12.357Z,5.43
2019-03-28T11:24:17.138Z,5.17
2019-03-28T11:27:21.936Z,4.70
2019-03-28T11:30:26.960Z,5.83
2019-03-28T11:33:32.325Z,5.50
2019-03-28T11:36:37.946Z,5.07
2019-03-28T11:39:44.612Z,5.57
2019-03-28T11:42:51.906Z,5.23
2019-03-28T11:45:55.613Z,4.10
2019-03-28T11:49:00.627Z,4.17
2019-03-28T11:52:06.140Z,5.30
2019-03-28T11:55:11.056Z,5.67
2019-03-28T11:58:16.015Z,4.60
2019-03-28T12:01:21.287Z,4.33
2019-03-28T12:04:25.971Z,3.67
2019-03-28T12:07:30.731Z,3.80
2019-03-28T12:11:04.289Z,4.30
2019-03-28T12:14:09.781Z,3.50
2019-03-28T12:17:14.530Z,4.07
2019-03-28T12:20:19.441Z,4.00
2019-03-28T12:23:24.237Z,3.70
2019-03-28T12:26:33.625Z,3.63
2019-03-28T12:29:38.256Z,3.30
2019-03-28T12:32:43.327Z,3.60
2019-03-28T12:35:49.393Z,3.97
2019-03-28T12:38:54.697Z,3.80
2019-03-28T12:42:00.266Z,3.60
2019-03-28T12:45:12.986Z,3.90
2019-03-28T12:48:17.771Z,4.23
2019-03-28T12:51:23.811Z,4.00
2019-03-28T12:54:28.797Z,4.00
2019-03-28T12:57:33.975Z,4.40
2019-03-28T13:00:38.710Z,4.13
2019-03-28T13:06:49.290Z,4.00
2019-03-28T13:09:53.967Z,4.17
2019-03-28T13:12:59.260Z,4.53
2019-03-28T13:16:05.433Z,4.93
2019-03-28T13:19:11.378Z,4.83
2019-03-28T13:22:16.590Z,5.23
2019-03-28T13:25:21.295Z,5.80
2019-03-28T13:28:26.562Z,5.27
2019-03-28T13:31:31.412Z,6.30
2019-03-28T13:34:36.781Z,5.40
2019-03-28T13:37:42.300Z,4.70
2019-03-28T13:40:47.340Z,5.80
2019-03-28T13:43:52.959Z,6.60
2019-03-28T13:46:58.656Z,5.83
2019-03-28T13:50:04.957Z,6.53
2019-03-28T13:53:10.594Z,7.23
2019-03-28T13:56:15.808Z,6.17
2019-03-28T13:59:21.028Z,7.07
2019-03-28T14:02:29.471Z,7.23
2019-03-28T14:05:34.403Z,7.57
2019-03-28T14:08:39.676Z,7.43
2019-03-28T14:11:45.919Z,7.63
2019-03-28T14:14:50.972Z,8.10
2019-03-28T14:17:56.255Z,7.77
2019-03-28T14:21:01.926Z,7.50
2019-03-28T14:24:07.334Z,7.77
2019-03-28T14:27:12.578Z,8.00
2019-03-28T14:30:20.490Z,7.83
2019-03-28T14:33:27.326Z,7.47
2019-03-28T14:36:33.075Z,9.37
2019-03-28T14:39:39.461Z,9.57
2019-03-28T14:42:46.288Z,8.13
2019-03-28T14:45:52.267Z,8.67
2019-03-28T14:48:57.347Z,8.47
2019-03-28T14:52:02.279Z,8.00
2019-03-28T14:55:07.294Z,8.40
2019-03-28T14:58:12.058Z,8.27
2019-03-28T15:01:17.791Z,8.67
2019-03-28T15:10:32.428Z,9.03
2019-03-28T15:13:40.367Z,8.27
2019-03-28T15:16:43.708Z,9.03
2019-03-28T15:22:54.281Z,9.17
2019-03-28T15:26:00.438Z,9.50
2019-03-28T15:29:06.951Z,8.97
2019-03-28T15:32:11.574Z,8.57
2019-03-28T15:35:16.822Z,8.43
2019-03-28T15:38:21.879Z,8.00
2019-03-28T15:41:26.932Z,9.10
2019-03-28T15:44:31.900Z,8.77
2019-03-28T15:47:36.686Z,8.23
2019-03-28T15:53:46.403Z,7.30
2019-03-28T15:56:51.735Z,6.67
2019-03-28T16:06:04.504Z,6.37
2019-03-28T16:09:09.497Z,6.87
2019-03-28T16:12:15.195Z,7.07
2019-03-28T16:15:22.443Z,7.30
2019-03-28T16:24:37.525Z,10.10
2019-03-28T16:27:43.115Z,7.40
2019-03-28T16:30:47.750Z,7.07
2019-03-28T16:36:58.951Z,6.03
2019-03-28T16:40:04.124Z,6.50
2019-03-28T16:43:09.587Z,6.80
2019-03-28T16:49:21.730Z,6.07
2019-03-28T16:52:26.326Z,6.63
2019-03-28T16:55:31.525Z,6.37
2019-03-28T16:58:37.896Z,6.33
2019-03-28T17:01:42.624Z,7.83
2019-03-28T17:04:47.654Z,9.43
2019-03-28T17:07:52.689Z,8.70
2019-03-28T17:10:57.633Z,7.37
2019-03-28T17:14:02.809Z,7.23
2019-03-28T17:17:08.824Z,8.00
2019-03-28T17:20:15.091Z,6.47
2019-03-28T17:23:22.905Z,8.07
2019-03-28T17:26:28.312Z,7.80
2019-03-28T17:29:33.428Z,7.60
2019-03-28T17:32:38.862Z,6.47
2019-03-28T17:35:45.630Z,6.10
2019-03-28T17:38:52.401Z,6.60
2019-03-28T17:41:57.923Z,6.43
2019-03-28T17:45:03.402Z,7.03
2019-03-28T17:48:08.309Z,7.30
2019-03-28T17:51:13.991Z,6.53
2019-03-28T17:54:19.562Z,6.10
2019-03-28T17:57:25.714Z,5.87
2019-03-28T18:00:33.488Z,6.00
2019-03-28T18:03:38.833Z,5.87
2019-03-28T18:06:44.304Z,6.37
2019-03-28T18:09:51.215Z,6.50
2019-03-28T18:12:57.270Z,5.63
2019-03-28T18:16:02.591Z,6.47
2019-03-28T18:19:08.103Z,6.40
2019-03-28T18:22:13.566Z,6.30
2019-03-28T18:25:18.289Z,6.50
2019-03-28T18:28:23.733Z,6.13
2019-03-28T18:34:34.246Z,5.50
2019-03-28T18:37:39.387Z,4.87
2019-03-28T18:40:44.483Z,5.17
2019-03-28T18:43:49.818Z,5.87
2019-03-28T18:46:54.971Z,5.83
2019-03-28T18:50:03.140Z,5.90
2019-03-28T18:56:11.835Z,6.70
2019-03-28T18:59:18.253Z,5.50
2019-03-28T19:02:23.134Z,6.00
2019-03-28T19:05:28.253Z,5.07
2019-03-28T19:08:35.460Z,5.60
2019-03-28T19:11:40.989Z,6.17
2019-03-28T19:14:48.324Z,7.03
2019-03-28T19:17:53.459Z,5.70
2019-03-28T19:20:59.162Z,6.67
2019-03-28T19:24:04.293Z,6.17
2019-03-28T19:27:10.912Z,7.47
2019-03-28T19:30:20.629Z,6.33
2019-03-28T19:33:27.544Z,5.87
2019-03-28T19:36:33.809Z,5.20
2019-03-28T19:39:39.328Z,5.23
2019-03-28T19:42:44.346Z,5.23
2019-03-28T19:45:54.463Z,5.60
2019-03-28T19:48:59.297Z,6.30
2019-03-28T19:52:04.297Z,6.97
2019-03-28T19:55:09.520Z,8.03
2019-03-28T19:58:14.683Z,8.13
2019-03-28T20:01:21.374Z,8.37
2019-03-28T20:04:28.601Z,8.30
2019-03-28T20:07:33.371Z,9.90
2019-03-28T20:10:38.254Z,9.53
2019-03-28T20:13:44.585Z,6.77
2019-03-28T20:16:50.278Z,5.63
2019-03-28T20:19:57.470Z,5.07
2019-03-28T20:23:02.424Z,4.77
2019-03-28T20:26:07.789Z,5.20
2019-03-28T20:29:13.055Z,5.53
2019-03-28T20:32:19.302Z,4.53
2019-03-28T20:35:24.605Z,4.87
2019-03-28T20:38:29.926Z,4.30
2019-03-28T20:41:36.017Z,4.40
2019-03-28T20:44:41.712Z,4.47
2019-03-28T20:50:52.956Z,4.77
2019-03-28T20:53:58.031Z,5.27
2019-03-28T20:57:03.951Z,3.83
2019-03-28T21:00:09.156Z,4.13
2019-03-28T21:03:15.154Z,4.20
2019-03-28T21:06:20.623Z,5.10
2019-03-28T21:09:25.728Z,4.70
2019-03-28T21:12:31.333Z,5.00
2019-03-28T21:15:36.381Z,4.87
2019-03-28T21:18:41.341Z,4.37
2019-03-28T21:21:48.107Z,4.10
2019-03-28T21:24:53.446Z,4.17
2019-03-28T21:27:59.741Z,4.97
2019-03-28T21:34:11.500Z,4.63
2019-03-28T21:37:16.510Z,4.73
2019-03-28T21:40:23.016Z,6.00
2019-03-28T21:43:30.709Z,9.70
2019-03-28T21:46:37.103Z,51.23
2019-03-28T21:49:43.599Z,63.67
2019-03-28T21:52:48.291Z,70.97
2019-03-28T21:55:57.194Z,66.83
2019-03-28T21:59:01.528Z,61.47
2019-03-28T22:02:06.807Z,33.67
2019-03-28T22:08:20.332Z,26.97
2019-03-28T22:11:25.266Z,16.47
2019-03-28T22:14:31.128Z,15.93
2019-03-28T22:17:35.735Z,10.63
2019-03-28T22:23:44.972Z,8.53
2019-03-28T22:26:51.272Z,7.57
2019-03-28T22:29:57.559Z,6.60
2019-03-28T22:33:03.528Z,6.20
2019-03-28T22:36:09.442Z,5.93
2019-03-28T22:39:14.323Z,6.57
2019-03-28T22:42:19.337Z,6.60
2019-03-28T22:45:24.423Z,6.00
2019-03-28T22:48:29.464Z,5.40
2019-03-28T22:51:34.631Z,5.50
2019-03-28T22:54:39.356Z,5.93
2019-03-28T22:57:44.293Z,5.30
2019-03-28T23:00:51.615Z,5.87
2019-03-28T23:03:56.333Z,5.33
2019-03-28T23:07:10.970Z,5.50
2019-03-28T23:10:10.969Z,5.30
2019-03-28T23:13:16.331Z,5.07
2019-03-28T23:16:21.171Z,5.43
2019-03-28T23:19:26.303Z,5.50
2019-03-28T23:22:31.028Z,5.63
2019-03-28T23:25:36.911Z,5.80
2019-03-28T23:28:41.984Z,6.40
2019-03-28T23:31:47.063Z,6.30
2019-03-28T23:34:52.349Z,7.13
2019-03-28T23:37:56.975Z,6.43
2019-03-28T23:41:02.372Z,7.53
2019-03-28T23:44:07.308Z,7.70
2019-03-28T23:47:13.367Z,8.07
2019-03-28T23:50:18.749Z,7.33
2019-03-28T23:56:27.365Z,6.73
2019-03-28T23:59:32.302Z,8.03
